This is the latest recevied weather packets stored in our database for station/object TG8AKV-17. If no packets are shown the sender has not sent any weather packets the latest 10 day(s).
| Time | Temp. | Humidity | Pressure | Rain* | Wind** | Luminosity | Snow |
|---|---|---|---|---|---|---|---|
| 1778020090 | 20° C | 78% | 1015 hPa | 0 mm | - | - | - |
| 1778019490 | 20° C | 78% | 1015 hPa | 0 mm | - | - | - |
| 1778018889 | 20° C | 78% | 1015 hPa | 0 mm | - | - | - |
| 1778018288 | 22.22° C | 74% | 1015 hPa | 0 mm | - | - | - |
| 1778017688 | 21.11° C | 76% | 1015 hPa | 0 mm | - | - | - |
| 1778017087 | 19.44° C | 81% | 1015 hPa | 0 mm | - | - | - |
| 1778016487 | 19.44° C | 81% | 1015 hPa | 0 mm | - | - | - |
| 1778015886 | 16.11° C | 94% | 1015 hPa | 0 mm | - | - | - |
| 1778015285 | 16.11° C | 94% | 1015 hPa | 0 mm | - | - | - |
| 1778014684 | 22.78° C | 69% | 1015 hPa | 0 mm | - | - | - |
| 1778014084 | 21.67° C | 71% | 1015 hPa | 0 mm | - | - | - |
| 1778013483 | 20° C | 77% | 1015 hPa | 0 mm | - | - | - |
| 1778012883 | 17.22° C | 88% | 1015 hPa | 0 mm | - | - | - |
| 1778012282 | 17.22° C | 90% | 1015 hPa | 0 mm | - | - | - |
| 1778011681 | 17.22° C | 90% | 1015 hPa | 0 mm | - | - | - |
| 1778011081 | 17.22° C | 90% | 1015 hPa | 0 mm | - | - | - |
| 1778010480 | 16.67° C | 90% | 1015 hPa | 0 mm | - | - | - |
| 1778009880 | 16.67° C | 90% | 1015 hPa | 0 mm | - | - | - |
| 1778009279 | 16.67° C | 90% | 1015 hPa | 0 mm | - | - | - |
| 1778008679 | 16.67° C | 90% | 1015 hPa | 0 mm | - | - | - |
| 1778008078 | 17.22° C | 89% | 1015 hPa | 0 mm | - | - | - |
| 1778007478 | 24.44° C | 53% | 1015 hPa | 0 mm | - | - | - |
| 1778006877 | 23.89° C | 57% | 1015 hPa | 0 mm | - | - | - |
| 1778006276 | 24.44° C | 49% | 1015 hPa | 0 mm | - | - | - |
| 1778005676 | 23.89° C | 47% | 1016 hPa | 0 mm | - | - | - |
* Rain latest hour (hover to see other rain measurements)
** Current wind speed in m/s (hover to see current wind gust speed)